createdAt,value
2019-03-10T00:00:24.219Z,67.17
2019-03-10T00:02:53.890Z,67.50
2019-03-10T00:05:23.608Z,67.55
2019-03-10T00:07:53.139Z,67.56
2019-03-10T00:10:22.477Z,68.02
2019-03-10T00:12:51.723Z,67.00
2019-03-10T00:15:20.966Z,67.32
2019-03-10T00:17:50.294Z,66.84
2019-03-10T00:20:19.600Z,66.48
2019-03-10T00:22:49.219Z,66.94
2019-03-10T00:25:18.824Z,66.89
2019-03-10T00:27:48.285Z,66.65
2019-03-10T00:30:17.801Z,66.73
2019-03-10T00:32:47.055Z,66.82
2019-03-10T00:35:16.941Z,66.27
2019-03-10T00:37:46.224Z,66.57
2019-03-10T00:40:56.773Z,66.69
2019-03-10T00:44:20.304Z,66.01
2019-03-10T00:47:17.175Z,66.42
2019-03-10T00:50:24.258Z,66.08
2019-03-10T00:52:58.842Z,65.93
2019-03-10T00:55:28.107Z,65.80
2019-03-10T00:57:57.728Z,65.74
2019-03-10T01:00:27.117Z,65.88
2019-03-10T01:02:56.516Z,65.92
2019-03-10T01:05:25.808Z,65.69
2019-03-10T01:07:55.047Z,65.31
2019-03-10T01:10:24.311Z,65.40
2019-03-10T01:12:53.996Z,64.94
2019-03-10T01:15:23.208Z,64.94
2019-03-10T01:17:53.246Z,65.02
2019-03-10T01:20:22.489Z,65.22
2019-03-10T01:22:51.755Z,64.66
2019-03-10T01:25:20.991Z,64.62
2019-03-10T01:27:50.269Z,64.44
2019-03-10T01:30:20.030Z,64.58
2019-03-10T01:33:38.914Z,64.72
2019-03-10T01:36:14.604Z,64.52
2019-03-10T01:38:44.150Z,64.71
2019-03-10T01:41:13.409Z,64.27
2019-03-10T01:43:42.663Z,64.25
2019-03-10T01:46:11.928Z,64.28
2019-03-10T01:48:41.164Z,64.48
2019-03-10T01:51:10.443Z,64.18
2019-03-10T01:53:39.705Z,64.51
2019-03-10T01:56:08.973Z,64.11
2019-03-10T01:58:38.228Z,63.81
2019-03-10T02:01:07.463Z,63.91
2019-03-10T02:03:36.739Z,64.00
2019-03-10T02:06:06.042Z,64.06
2019-03-10T02:08:35.303Z,64.08
2019-03-10T02:11:04.575Z,63.81
2019-03-10T02:13:33.811Z,63.96
2019-03-10T02:16:03.081Z,64.05
2019-03-10T02:18:32.343Z,63.96
2019-03-10T02:21:01.583Z,63.86
2019-03-10T02:23:30.862Z,63.45
2019-03-10T02:26:00.124Z,63.46
2019-03-10T02:28:29.365Z,63.50
2019-03-10T02:30:58.623Z,63.19
2019-03-10T02:33:27.862Z,63.24
2019-03-10T02:35:57.132Z,63.17
2019-03-10T02:38:26.379Z,63.03
2019-03-10T02:40:55.645Z,63.04
2019-03-10T02:43:24.897Z,63.32
2019-03-10T02:45:54.137Z,63.55
2019-03-10T02:48:38.316Z,63.12
2019-03-10T02:51:07.561Z,63.75
2019-03-10T02:53:38.074Z,63.54
2019-03-10T02:56:07.366Z,63.72
2019-03-10T02:58:36.608Z,64.14
2019-03-10T03:01:05.880Z,64.01
2019-03-10T03:03:35.127Z,64.28
2019-03-10T03:06:04.383Z,64.37
2019-03-10T03:08:33.625Z,64.36
2019-03-10T03:11:02.919Z,64.60
2019-03-10T03:13:32.244Z,64.80
2019-03-10T03:16:01.500Z,64.67
2019-03-10T03:18:30.762Z,64.83
2019-03-10T03:21:00.009Z,64.92
2019-03-10T03:23:29.255Z,64.88
2019-03-10T03:25:58.535Z,64.74
2019-03-10T03:28:27.813Z,64.80
2019-03-10T03:30:57.074Z,64.75
2019-03-10T03:33:26.308Z,65.03
2019-03-10T03:35:57.843Z,64.87
2019-03-10T03:38:39.655Z,64.74
2019-03-10T03:41:11.995Z,64.59
2019-03-10T03:43:41.239Z,64.89
2019-03-10T03:46:10.483Z,64.52
2019-03-10T03:48:39.740Z,64.37
2019-03-10T03:51:08.986Z,64.35
2019-03-10T03:53:38.259Z,65.08
2019-03-10T03:56:07.547Z,65.24
2019-03-10T03:58:36.816Z,65.33
2019-03-10T04:01:15.701Z,64.81
2019-03-10T04:03:44.937Z,65.37
2019-03-10T04:06:14.202Z,65.36
2019-03-10T04:08:43.448Z,65.47
2019-03-10T04:11:12.730Z,65.14
2019-03-10T04:13:41.971Z,65.27
2019-03-10T04:16:11.245Z,65.50
2019-03-10T04:18:40.477Z,65.70
2019-03-10T04:21:09.735Z,65.97
2019-03-10T04:23:39.010Z,66.25
2019-03-10T04:26:08.265Z,66.19
2019-03-10T04:28:37.508Z,66.36
2019-03-10T04:31:06.741Z,66.37
2019-03-10T04:33:36.007Z,66.74
2019-03-10T04:36:05.275Z,66.25
2019-03-10T04:38:34.519Z,66.39
2019-03-10T04:41:03.787Z,66.42
2019-03-10T04:43:33.019Z,65.94
2019-03-10T04:46:02.277Z,65.94
2019-03-10T04:48:31.545Z,66.27
2019-03-10T04:51:03.239Z,66.30
2019-03-10T04:53:32.595Z,66.66
2019-03-10T04:56:10.033Z,66.93
2019-03-10T04:58:42.987Z,67.16
2019-03-10T05:01:12.226Z,66.29
2019-03-10T05:03:41.490Z,66.89
2019-03-10T05:06:10.786Z,66.79
2019-03-10T05:08:40.037Z,67.30
2019-03-10T05:11:09.275Z,67.11
2019-03-10T05:13:38.533Z,67.29
2019-03-10T05:16:07.882Z,66.88
2019-03-10T05:18:37.121Z,67.18
2019-03-10T05:21:06.370Z,66.90
2019-03-10T05:23:40.516Z,66.49
2019-03-10T05:26:09.771Z,66.61
2019-03-10T05:28:41.981Z,67.29
2019-03-10T05:31:11.246Z,67.20
2019-03-10T05:33:40.527Z,67.69
2019-03-10T05:36:09.763Z,68.13
2019-03-10T05:38:39.025Z,68.39
2019-03-10T05:41:08.278Z,68.45
2019-03-10T05:43:37.509Z,69.23
2019-03-10T05:46:06.873Z,71.87
2019-03-10T05:48:36.118Z,72.25
2019-03-10T05:51:05.376Z,72.57
2019-03-10T05:53:34.653Z,73.24
2019-03-10T05:56:03.899Z,73.77
2019-03-10T05:58:35.130Z,74.34
2019-03-10T06:01:04.133Z,75.36
2019-03-10T06:03:33.414Z,76.56
2019-03-10T06:06:02.738Z,75.96
2019-03-10T06:08:32.005Z,76.92
2019-03-10T06:11:01.274Z,77.79
2019-03-10T06:13:33.275Z,77.88
2019-03-10T06:16:02.605Z,78.65
2019-03-10T06:18:31.839Z,78.16
2019-03-10T06:21:01.108Z,77.32
2019-03-10T06:23:30.382Z,77.92
2019-03-10T06:25:59.640Z,77.43
2019-03-10T06:28:28.932Z,77.78
2019-03-10T06:30:58.185Z,77.55
2019-03-10T06:33:27.489Z,78.10
2019-03-10T06:35:56.730Z,77.76
2019-03-10T06:38:25.994Z,77.64
2019-03-10T06:40:55.226Z,77.74
2019-03-10T06:43:24.474Z,77.31
2019-03-10T06:45:53.735Z,77.79
2019-03-10T06:48:22.980Z,77.84
2019-03-10T06:50:52.256Z,77.75
2019-03-10T06:53:21.490Z,77.86
2019-03-10T06:55:50.768Z,78.66
2019-03-10T06:58:20.051Z,78.13
2019-03-10T07:00:49.307Z,78.25
2019-03-10T07:03:18.595Z,78.12
2019-03-10T07:05:47.833Z,77.33
2019-03-10T07:08:17.091Z,78.18
2019-03-10T07:10:46.338Z,78.61
2019-03-10T07:13:15.611Z,78.40
2019-03-10T07:15:44.845Z,79.26
2019-03-10T07:18:14.083Z,79.05
2019-03-10T07:20:43.346Z,79.55
2019-03-10T07:23:14.379Z,79.70
2019-03-10T07:25:43.650Z,78.92
2019-03-10T07:28:20.843Z,79.93
2019-03-10T07:30:56.990Z,79.97
2019-03-10T07:33:38.959Z,80.15
2019-03-10T07:36:26.804Z,79.54
2019-03-10T07:39:23.960Z,80.51
2019-03-10T07:42:18.013Z,80.31
2019-03-10T07:45:12.243Z,80.53
2019-03-10T07:48:00.473Z,80.85
2019-03-10T07:51:00.526Z,81.66
2019-03-10T07:53:43.030Z,81.12
2019-03-10T07:56:29.627Z,80.49
2019-03-10T07:59:17.847Z,80.64
2019-03-10T08:02:09.098Z,81.23
2019-03-10T08:04:45.477Z,81.50
2019-03-10T08:07:21.725Z,81.04
2019-03-10T08:10:06.140Z,81.69
2019-03-10T08:12:44.292Z,81.33
2019-03-10T08:15:32.513Z,81.37
2019-03-10T08:18:19.469Z,80.95
2019-03-10T08:21:10.455Z,80.85
2019-03-10T08:23:58.656Z,81.69
2019-03-10T08:26:33.516Z,81.22
2019-03-10T08:29:15.801Z,81.07
2019-03-10T08:32:02.445Z,81.24
2019-03-10T08:34:49.200Z,81.79
2019-03-10T08:37:35.229Z,81.85
2019-03-10T08:40:22.551Z,81.18
2019-03-10T08:43:13.868Z,82.33
2019-03-10T08:46:16.979Z,82.20
2019-03-10T08:49:23.157Z,81.42
2019-03-10T08:52:00.426Z,81.67
2019-03-10T08:54:36.993Z,81.98
2019-03-10T08:57:13.500Z,81.65
2019-03-10T08:59:55.379Z,81.11
2019-03-10T09:02:39.683Z,81.15
2019-03-10T09:05:31.133Z,81.26
2019-03-10T09:08:17.713Z,80.78
2019-03-10T09:11:07.646Z,80.38
2019-03-10T09:14:03.473Z,81.25
2019-03-10T09:17:04.352Z,81.48
2019-03-10T09:19:46.704Z,81.81
2019-03-10T09:22:38.529Z,81.74
2019-03-10T09:25:30.947Z,81.68
2019-03-10T09:28:13.485Z,81.46
2019-03-10T09:31:02.055Z,81.63
2019-03-10T09:33:50.865Z,81.20
2019-03-10T09:36:25.955Z,80.82
2019-03-10T09:39:14.002Z,80.96
2019-03-10T09:41:52.051Z,80.57
2019-03-10T09:44:55.624Z,80.13
2019-03-10T09:48:02.414Z,80.08
2019-03-10T09:50:49.456Z,79.81
2019-03-10T09:53:52.670Z,80.12
2019-03-10T09:56:49.818Z,80.20
2019-03-10T09:59:46.816Z,80.12
2019-03-10T10:02:44.097Z,80.75
2019-03-10T10:05:31.001Z,80.95
2019-03-10T10:08:10.309Z,80.79
2019-03-10T10:11:04.543Z,80.49
2019-03-10T10:13:55.736Z,80.37
2019-03-10T10:16:44.111Z,80.49
2019-03-10T10:19:35.181Z,79.67
2019-03-10T10:22:24.699Z,79.04
2019-03-10T10:25:08.793Z,78.06
2019-03-10T10:28:02.248Z,77.43
2019-03-10T10:30:50.469Z,77.81
2019-03-10T10:33:33.591Z,77.14
2019-03-10T10:36:12.991Z,77.16
2019-03-10T10:38:53.691Z,76.78
2019-03-10T10:41:40.383Z,76.69
2019-03-10T10:44:16.701Z,76.41
2019-03-10T10:47:10.729Z,76.32
2019-03-10T10:50:04.993Z,76.16
2019-03-10T10:52:51.909Z,75.68
2019-03-10T10:55:38.586Z,75.60
2019-03-10T10:58:21.866Z,75.67
2019-03-10T11:01:19.659Z,75.77
2019-03-10T11:04:07.990Z,75.64
2019-03-10T11:07:08.275Z,75.64
2019-03-10T11:09:56.680Z,74.41
2019-03-10T11:12:34.846Z,74.02
2019-03-10T11:15:12.903Z,73.41
2019-03-10T11:18:08.988Z,72.59
2019-03-10T11:21:01.407Z,71.69
2019-03-10T11:23:55.673Z,72.07
2019-03-10T11:26:42.580Z,74.20
2019-03-10T11:29:45.672Z,72.32
2019-03-10T11:32:39.589Z,71.17
2019-03-10T11:35:31.058Z,70.46
2019-03-10T11:38:18.506Z,70.85
2019-03-10T11:41:06.686Z,70.97
2019-03-10T11:43:56.256Z,69.20
2019-03-10T11:46:42.903Z,65.82
2019-03-10T11:49:23.972Z,67.40
2019-03-10T11:51:57.306Z,65.63
2019-03-10T11:55:03.529Z,67.14
2019-03-10T11:57:39.572Z,67.69
2019-03-10T12:00:23.635Z,67.08
2019-03-10T12:03:08.434Z,66.52
2019-03-10T12:05:44.681Z,65.46
2019-03-10T12:08:20.257Z,64.08
2019-03-10T12:10:49.542Z,62.57
2019-03-10T12:13:18.815Z,60.33
2019-03-10T12:15:48.054Z,63.39
2019-03-10T12:18:17.344Z,62.53
2019-03-10T12:20:46.634Z,62.80
2019-03-10T12:23:15.924Z,63.77
2019-03-10T12:25:45.170Z,63.79
2019-03-10T12:28:14.443Z,64.10
2019-03-10T12:30:43.693Z,64.52
2019-03-10T12:33:12.972Z,66.04
2019-03-10T12:35:42.333Z,66.24
2019-03-10T12:38:11.633Z,63.60
2019-03-10T12:40:40.875Z,63.99
2019-03-10T12:43:10.149Z,64.94
2019-03-10T12:45:39.527Z,65.96
2019-03-10T12:48:08.910Z,66.63
2019-03-10T12:50:38.172Z,66.38
2019-03-10T12:53:07.455Z,65.91
2019-03-10T12:55:36.710Z,64.45
2019-03-10T12:58:05.964Z,64.17
2019-03-10T13:00:35.229Z,63.12
2019-03-10T13:03:04.489Z,61.82
2019-03-10T13:05:33.792Z,56.91
2019-03-10T13:08:03.040Z,57.34
2019-03-10T13:10:32.427Z,57.33
2019-03-10T13:13:01.719Z,56.91
2019-03-10T13:15:30.992Z,56.53
2019-03-10T13:18:00.278Z,57.05
2019-03-10T13:20:29.574Z,57.67
2019-03-10T13:22:58.863Z,57.89
2019-03-10T13:25:28.110Z,58.46
2019-03-10T13:27:57.382Z,60.98
2019-03-10T13:30:26.639Z,64.92
2019-03-10T13:32:55.881Z,62.78
2019-03-10T13:35:25.164Z,61.21
2019-03-10T13:37:54.432Z,60.31
2019-03-10T13:40:23.714Z,59.27
2019-03-10T13:42:53.015Z,57.83
2019-03-10T13:45:22.315Z,57.20
2019-03-10T13:47:51.679Z,57.22
2019-03-10T13:50:20.959Z,57.54
2019-03-10T13:52:50.264Z,58.27
2019-03-10T13:55:19.541Z,59.03
2019-03-10T13:57:48.783Z,60.21
2019-03-10T14:00:20.675Z,62.29
2019-03-10T14:02:49.917Z,62.58
2019-03-10T14:05:19.328Z,62.50
2019-03-10T14:07:48.570Z,65.37
2019-03-10T14:10:17.812Z,64.81
2019-03-10T14:12:47.082Z,64.23
2019-03-10T14:15:16.437Z,64.14
2019-03-10T14:17:45.708Z,63.07
2019-03-10T14:20:15.080Z,64.29
2019-03-10T14:22:44.351Z,62.91
2019-03-10T14:25:14.030Z,63.59
2019-03-10T14:27:43.296Z,62.53
2019-03-10T14:30:14.682Z,61.37
2019-03-10T14:32:43.944Z,60.23
2019-03-10T14:35:13.304Z,59.47
2019-03-10T14:37:42.540Z,58.64
2019-03-10T14:40:12.138Z,58.36
2019-03-10T14:42:41.392Z,57.77
2019-03-10T14:45:12.402Z,56.20
2019-03-10T14:47:41.918Z,55.77
2019-03-10T14:50:11.774Z,55.06
2019-03-10T14:52:41.117Z,54.79
2019-03-10T14:55:11.667Z,54.47
2019-03-10T14:57:40.966Z,54.08
2019-03-10T15:00:13.649Z,53.97
2019-03-10T15:02:42.914Z,53.35
2019-03-10T15:05:12.334Z,52.83
2019-03-10T15:07:41.610Z,52.76
2019-03-10T15:10:11.007Z,51.03
2019-03-10T15:12:40.351Z,51.04
2019-03-10T15:15:21.277Z,50.56
2019-03-10T15:17:41.312Z,50.12
2019-03-10T15:20:11.255Z,48.62
2019-03-10T15:22:40.550Z,47.87
2019-03-10T15:25:10.783Z,48.03
2019-03-10T15:27:40.046Z,48.02
2019-03-10T15:30:12.745Z,47.58
2019-03-10T15:32:41.973Z,47.73
2019-03-10T15:35:11.400Z,48.39
2019-03-10T15:37:40.653Z,48.40
2019-03-10T15:40:11.076Z,48.29
2019-03-10T15:42:40.347Z,48.47
2019-03-10T15:45:10.729Z,48.86
2019-03-10T15:47:40.044Z,49.48
2019-03-10T15:50:15.244Z,49.83
2019-03-10T15:52:44.524Z,50.01
2019-03-10T15:55:19.635Z,50.41
2019-03-10T15:57:50.556Z,49.82
2019-03-10T16:00:20.462Z,49.47
2019-03-10T16:02:49.902Z,48.57
2019-03-10T16:05:19.185Z,48.75
2019-03-10T16:07:48.444Z,48.46
2019-03-10T16:10:17.788Z,49.00
2019-03-10T16:12:49.386Z,48.75
2019-03-10T16:15:18.213Z,49.03
2019-03-10T16:17:47.507Z,48.99
2019-03-10T16:20:16.956Z,48.74
2019-03-10T16:22:46.237Z,48.83
2019-03-10T16:25:15.502Z,47.69
2019-03-10T16:27:44.903Z,46.82
2019-03-10T16:30:16.065Z,47.02
2019-03-10T16:32:45.488Z,46.87
2019-03-10T16:35:16.221Z,47.42
2019-03-10T16:37:45.469Z,45.16
2019-03-10T16:40:15.223Z,44.25
2019-03-10T16:42:44.528Z,44.50
2019-03-10T16:45:16.185Z,42.96
2019-03-10T16:47:45.463Z,43.54
2019-03-10T16:50:15.862Z,43.91
2019-03-10T16:52:45.171Z,42.92
2019-03-10T16:55:14.517Z,41.04
2019-03-10T16:57:43.911Z,40.47
2019-03-10T17:00:14.119Z,39.35
2019-03-10T17:02:43.491Z,39.51
2019-03-10T17:05:15.854Z,39.58
2019-03-10T17:07:45.476Z,39.64
2019-03-10T17:10:15.093Z,39.96
2019-03-10T17:12:44.327Z,39.67
2019-03-10T17:15:15.339Z,39.72
2019-03-10T17:17:44.570Z,39.49
2019-03-10T17:20:14.749Z,39.57
2019-03-10T17:22:44.210Z,40.02
2019-03-10T17:25:14.115Z,40.00
2019-03-10T17:27:43.656Z,40.21
2019-03-10T17:30:15.883Z,40.11
2019-03-10T17:32:45.302Z,40.57
2019-03-10T17:35:14.624Z,41.08
2019-03-10T17:37:43.903Z,41.27
2019-03-10T17:40:15.152Z,40.74
2019-03-10T17:42:44.440Z,41.01
2019-03-10T17:45:15.824Z,41.09
2019-03-10T17:47:45.101Z,41.12
2019-03-10T17:50:14.790Z,41.25
2019-03-10T17:52:44.111Z,41.33
2019-03-10T17:55:13.636Z,41.00
2019-03-10T17:57:45.123Z,41.31
2019-03-10T18:00:15.008Z,41.33
2019-03-10T18:02:44.260Z,40.94
2019-03-10T18:05:13.543Z,39.77
2019-03-10T18:07:42.857Z,39.98
2019-03-10T18:10:12.503Z,39.07
2019-03-10T18:12:41.892Z,38.68
2019-03-10T18:15:11.575Z,38.62
2019-03-10T18:17:41.092Z,38.88
2019-03-10T18:20:12.353Z,38.90
2019-03-10T18:22:41.830Z,39.26
2019-03-10T18:25:11.434Z,39.15
2019-03-10T18:27:40.779Z,39.22
2019-03-10T18:30:13.017Z,39.38
2019-03-10T18:32:42.370Z,39.15
2019-03-10T18:35:11.735Z,39.71
2019-03-10T18:37:41.045Z,39.84
2019-03-10T18:40:13.426Z,39.97
2019-03-10T18:42:42.752Z,40.37
2019-03-10T18:45:13.509Z,40.47
2019-03-10T18:47:42.774Z,40.79
2019-03-10T18:50:12.920Z,41.39
2019-03-10T18:52:42.170Z,41.24
2019-03-10T18:55:11.790Z,41.43
2019-03-10T18:57:41.186Z,41.73
2019-03-10T19:00:14.033Z,42.15
2019-03-10T19:02:43.277Z,42.48
2019-03-10T19:05:12.695Z,42.61
2019-03-10T19:07:41.972Z,42.91
2019-03-10T19:10:11.501Z,42.90
2019-03-10T19:12:40.785Z,43.09
2019-03-10T19:15:11.842Z,44.70
2019-03-10T19:17:41.094Z,49.75
2019-03-10T19:20:11.246Z,54.21
2019-03-10T19:22:42.847Z,54.74
2019-03-10T19:25:12.548Z,54.65
2019-03-10T19:27:41.970Z,55.15
2019-03-10T19:30:13.474Z,53.02
2019-03-10T19:32:42.905Z,52.38
2019-03-10T19:35:12.302Z,53.24
2019-03-10T19:37:41.688Z,54.00
2019-03-10T19:40:12.733Z,53.16
2019-03-10T19:42:41.999Z,53.00
2019-03-10T19:45:12.595Z,52.67
2019-03-10T19:47:41.873Z,51.34
2019-03-10T19:50:12.411Z,50.63
2019-03-10T19:52:43.404Z,49.68
2019-03-10T19:55:13.516Z,48.85
2019-03-10T19:57:42.941Z,48.30
2019-03-10T20:00:14.395Z,48.70
2019-03-10T20:02:43.721Z,48.03
2019-03-10T20:05:13.174Z,48.14
2019-03-10T20:07:43.288Z,47.65
2019-03-10T20:10:13.574Z,47.89
2019-03-10T20:12:42.847Z,47.58
2019-03-10T20:15:14.008Z,47.75
2019-03-10T20:17:43.404Z,47.76
2019-03-10T20:20:14.234Z,47.61
2019-03-10T20:22:43.949Z,47.55
2019-03-10T20:25:13.826Z,47.59
2019-03-10T20:27:43.379Z,47.86
2019-03-10T20:30:15.684Z,51.62
2019-03-10T20:32:45.295Z,62.89
2019-03-10T20:35:15.085Z,66.49
2019-03-10T20:37:44.708Z,67.20
2019-03-10T20:40:15.472Z,68.06
2019-03-10T20:42:53.906Z,69.13
2019-03-10T20:45:24.687Z,67.69
2019-03-10T20:47:56.588Z,66.36
2019-03-10T20:50:27.262Z,65.29
2019-03-10T20:52:56.842Z,65.16
2019-03-10T20:55:26.192Z,65.01
2019-03-10T20:57:55.856Z,63.97
2019-03-10T21:00:25.361Z,63.97
2019-03-10T21:02:55.053Z,63.17
2019-03-10T21:05:24.429Z,62.68
2019-03-10T21:07:54.033Z,62.17
2019-03-10T21:10:23.788Z,62.09
2019-03-10T21:12:53.191Z,61.97
2019-03-10T21:15:22.776Z,61.33
2019-03-10T21:17:52.182Z,60.62
2019-03-10T21:20:21.856Z,60.68
2019-03-10T21:22:51.206Z,59.96
2019-03-10T21:25:22.707Z,60.12
2019-03-10T21:27:52.180Z,59.54
2019-03-10T21:30:22.794Z,59.72
2019-03-10T21:32:53.552Z,60.06
2019-03-10T21:35:23.179Z,60.35
2019-03-10T21:37:52.507Z,60.17
2019-03-10T21:40:23.562Z,60.49
2019-03-10T21:42:53.157Z,60.69
2019-03-10T21:45:23.143Z,60.68
2019-03-10T21:47:53.615Z,61.41
2019-03-10T21:50:23.380Z,61.19
2019-03-10T21:52:53.248Z,61.68
2019-03-10T21:55:22.908Z,61.89
2019-03-10T21:57:52.789Z,62.07
2019-03-10T22:00:22.822Z,61.62
2019-03-10T22:02:52.662Z,61.82
2019-03-10T22:05:23.355Z,61.91
2019-03-10T22:07:54.358Z,61.65
2019-03-10T22:10:27.885Z,61.96
2019-03-10T22:12:57.050Z,61.92
2019-03-10T22:15:27.621Z,62.19
2019-03-10T22:17:58.234Z,62.24
2019-03-10T22:20:28.012Z,62.54
2019-03-10T22:22:57.551Z,62.74
2019-03-10T22:25:26.867Z,62.33
2019-03-10T22:27:56.870Z,61.29
2019-03-10T22:30:26.807Z,60.31
2019-03-10T22:32:56.198Z,59.75
2019-03-10T22:35:26.234Z,58.63
2019-03-10T22:37:55.645Z,57.93
2019-03-10T22:40:25.421Z,57.37
2019-03-10T22:42:55.492Z,56.46
2019-03-10T22:45:24.921Z,56.17
2019-03-10T22:47:55.932Z,56.14
2019-03-10T22:50:26.998Z,56.57
2019-03-10T22:52:56.425Z,56.68
2019-03-10T22:55:25.798Z,57.27
2019-03-10T22:57:55.042Z,58.51
2019-03-10T23:00:26.740Z,59.10
2019-03-10T23:02:56.039Z,59.27
2019-03-10T23:05:25.441Z,59.42
2019-03-10T23:07:55.350Z,59.44
2019-03-10T23:10:24.592Z,59.39
2019-03-10T23:12:53.884Z,59.51
2019-03-10T23:15:23.229Z,59.58
2019-03-10T23:17:52.604Z,59.57
2019-03-10T23:20:21.941Z,59.02
2019-03-10T23:22:51.347Z,58.79
2019-03-10T23:25:20.792Z,59.61
2019-03-10T23:27:50.136Z,59.81
2019-03-10T23:30:19.817Z,60.05
2019-03-10T23:32:49.141Z,60.05
2019-03-10T23:35:18.409Z,60.57
2019-03-10T23:37:47.640Z,60.63
2019-03-10T23:40:16.937Z,60.76
2019-03-10T23:42:46.169Z,60.98
2019-03-10T23:45:15.572Z,61.36
2019-03-10T23:47:44.842Z,61.67
2019-03-10T23:50:14.287Z,61.71
2019-03-10T23:52:43.572Z,62.46
2019-03-10T23:55:13.027Z,62.53
2019-03-10T23:57:42.298Z,62.80
